Latest Weather Observations for Wellcamp Airport

IDQ60801

Issued at 3:12 pm EST Monday 23 September 2019 (issued every 10 minutes, with the page automatically refreshed every 10 minutes)

About weather observations | Map of weather stations | Latest weather observations for QLD | Other Formats
Station Details ID: 541150 Name: WELLCAMP AIRPORT Lat: -27.55 Lon: 151.78 Height: 436.98 m
Data from the previous 72 hours. | See also: Recent months for locations in Queensland
Date/Time
EST
Temp
°C
App
Temp
°C
Dew
Point
°C
Rel
Hum
%
Delta-T
°C
Wind Press
QNH
hPa
Press
MSL
hPa
Rain since
9am
mm
Dir  Spd
km/h
Gust
km/h
Spd
kts
Gust
kts
23/03:00pm 28.5 23.5 6.6 25 11.8 W 22 35 12 19 1019.8 1019.0 0.0
23/02:30pm 28.7 22.9 7.9 27 11.5 W 28 41 15 22 1020.2 1019.3 0.0
23/02:00pm 28.3 23.2 9.1 30 10.8 W 26 39 14 21 1020.5 1019.7 0.0
23/01:30pm 27.1 22.7 9.0 32 10.1 W 22 37 12 20 1020.8 1020.0 0.0
23/01:00pm 27.9 22.9 9.7 32 10.3 WSW 26 37 14 20 1021.1 1020.3 0.0
23/12:30pm 27.2 23.1 10.0 34 9.8 WSW 22 32 12 17 1021.7 1020.9 0.0
23/12:00pm 26.5 22.9 9.8 35 9.4 WNW 19 30 10 16 1022.4 1021.6 0.0
23/11:30am 26.1 22.4 10.3 37 9.0 WNW 20 33 11 18 1022.9 1022.1 0.0
23/11:00am 25.6 21.3 10.6 39 8.5 WNW 24 35 13 19 1023.2 1022.4 0.0
23/10:30am 24.6 19.7 11.2 43 7.7 WNW 28 39 15 21 1023.7 1022.9 0.0
23/10:00am 23.8 19.2 11.2 45 7.2 NW 26 37 14 20 1024.2 1023.4 0.0
23/09:43am 23.7 18.9 11.7 47 6.9 WNW 28 48 15 26 1024.4 1023.7 0.0
23/09:30am 22.9 18.1 11.6 49 6.5 NW 28 37 15 20 1024.6 1023.9 0.0
23/09:00am 22.2 17.2 11.0 49 6.3 WNW 28 39 15 21 1025.0 1024.2 0.0
23/08:30am 21.1 16.6 10.0 49 6.1 NW 24 33 13 18 1025.1 1024.3 0.0
23/08:00am 20.4 16.6 9.9 51 5.7 NW 20 28 11 15 1025.2 1024.4 0.0
23/07:30am 18.8 16.5 10.4 58 4.6 NNW 13 22 7 12 1025.0 1024.2 0.0
23/07:00am 17.2 16.0 9.6 61 4.1 N 6 13 3 7 1024.9 1024.1 0.0
23/06:30am 16.1 15.2 9.1 63 3.7 ESE 4 7 2 4 1025.0 1024.2 0.0
23/06:00am 12.7 11.1 7.8 72 2.4 SSW 6 9 3 5 1025.1 1024.3 0.0
23/05:30am 11.3 9.3 7.0 75 2.1 SSE 7 9 4 5 1024.5 1023.8 0.0
23/05:00am 11.2 9.0 6.3 72 2.3 S 7 7 4 4 1024.1 1023.3 0.0
23/04:30am 13.7 11.8 9.2 74 2.3 SSE 9 11 5 6 1023.8 1023.0 0.0
23/04:00am 12.6 11.0 8.1 74 2.3 S 6 9 3 5 1023.3 1022.5 0.0
23/03:30am 12.3 10.7 8.2 76 2.1 WNW 6 7 3 4 1022.8 1022.0 0.0
23/03:00am 11.2 9.3 5.1 66 2.8 S 4 7 2 4 1022.6 1021.8 0.0
23/02:30am 13.2 11.8 7.4 68 2.9 E 4 6 2 3 1022.8 1022.0 0.0
23/02:00am 13.1 11.9 8.0 71 2.6 WNW 4 6 2 3 1023.1 1022.3 0.0
23/01:30am 13.7 12.9 8.3 70 2.8 WNW 2 4 1 2 1023.1 1022.3 0.0
23/01:00am 15.1 14.8 10.1 72 2.7 NW 2 4 1 2 1023.3 1022.5 0.0
23/12:30am 15.2 14.7 9.3 68 3.1 NNW 2 6 1 3 1023.5 1022.7 0.0
23/12:00am 17.6 16.7 10.7 64 3.8 NE 6 7 3 4 1023.8 1023.0 0.0
 
Date/Time
EST
Temp
°C
App
Temp
°C
Dew
Point
°C
Rel
Hum
%
Delta-T
°C
Wind Press
QNH
hPa
Press
MSL
hPa
Rain since
9am
mm
Dir  Spd
km/h
Gust
km/h
Spd
kts
Gust
kts
22/11:30pm 18.1 17.2 11.2 64 3.8 NE 7 11 4 6 1023.9 1023.1 0.0
22/11:00pm 18.7 18.0 11.5 63 4.0 N 6 13 3 7 1024.0 1023.2 0.0
22/10:30pm 19.4 17.5 11.7 61 4.3 NE 13 20 7 11 1023.8 1023.0 0.0
22/10:00pm 19.9 16.6 11.7 59 4.6 ENE 20 24 11 13 1023.5 1022.7 0.0
22/09:30pm 20.2 16.7 10.9 55 5.2 ENE 20 26 11 14 1023.6 1022.8 0.0
22/09:00pm 20.9 17.3 9.8 49 6.1 ENE 19 22 10 12 1023.7 1022.9 0.0
22/08:30pm 21.6 18.3 8.1 42 7.2 ENE 15 22 8 12 1023.6 1022.8 0.0
22/08:00pm 21.9 20.5 7.3 39 7.7 S 4 6 2 3 1023.5 1022.7 0.0
22/07:30pm 22.4 21.5 7.8 39 7.8 E 2 4 1 2 1023.3 1022.5 0.0
22/07:00pm 23.5 20.6 8.0 37 8.3 ENE 13 17 7 9 1023.0 1022.2 0.0
22/06:30pm 24.4 21.5 8.0 35 8.9 ENE 13 19 7 10 1022.7 1021.9 0.0
22/06:00pm 24.8 22.6 6.1 30 9.8 NNE 7 9 4 5 1022.5 1021.7 0.0
22/05:30pm 26.5 24.5 7.0 29 10.5 N 7 9 4 5 1022.4 1021.6 0.0
22/05:00pm 27.1 25.3 7.0 28 10.8 NNW 6 11 3 6 1022.1 1021.3 0.0
22/04:30pm 27.3 25.5 7.2 28 10.9 E 6 13 3 7 1021.9 1021.1 0.0
22/04:00pm 27.9 26.1 7.2 27 11.2 SSE 6 9 3 5 1021.8 1021.0 0.0
22/03:30pm 27.6 24.9 7.5 28 11.0 N 11 20 6 11 1022.0 1021.2 0.0
22/03:00pm 27.9 25.7 7.7 28 11.1 NE 9 20 5 11 1022.0 1021.2 0.0
22/02:30pm 27.8 25.4 8.6 30 10.7 NE 11 26 6 14 1022.4 1021.6 0.0
22/02:00pm 27.5 25.7 7.9 29 10.7 NW 7 19 4 10 1022.6 1021.8 0.0
22/01:30pm 27.1 24.0 9.0 32 10.1 N 15 24 8 13 1023.1 1022.3 0.0
22/01:00pm 26.5 24.3 9.4 34 9.6 NW 11 22 6 12 1023.5 1022.7 0.0
22/12:30pm 26.1 23.9 9.5 35 9.3 NW 11 19 6 10 1023.9 1023.1 0.0
22/12:00pm 24.8 22.8 10.3 40 8.2 NE 11 30 6 16 1024.2 1023.4 0.0
22/11:30am 24.6 21.8 10.1 40 8.2 NNW 15 26 8 14 1024.8 1024.0 0.0
22/11:00am 24.2 21.4 11.2 44 7.4 N 17 28 9 15 1025.1 1024.3 0.0
22/10:30am 23.6 20.9 11.6 47 6.9 N 17 30 9 16 1025.3 1024.5 0.0
22/10:00am 22.9 19.6 11.6 49 6.4 NNE 20 28 11 15 1025.7 1024.9 0.0
22/09:30am 21.9 18.4 12.2 54 5.6 NNE 22 32 12 17 1025.7 1024.9 0.0
22/09:00am 20.8 16.3 12.5 59 4.8 NNE 28 35 15 19 1025.8 1025.0 0.0
22/08:30am 20.1 16.0 12.6 62 4.3 NNE 26 35 14 19 1025.9 1025.1 0.0
22/08:00am 19.3 16.1 13.0 67 3.6 NNE 22 28 12 15 1025.9 1025.1 0.0
22/07:30am 17.7 16.2 13.0 74 2.7 NNE 13 19 7 10 1025.8 1025.0 0.0
22/07:00am 16.8 16.0 12.9 78 2.2 ENE 9 13 5 7 1025.6 1024.8 0.0
22/06:30am 14.6 14.9 12.1 85 1.4 E 2 6 1 3 1025.4 1024.6 0.0
22/06:00am 13.3 12.6 11.4 88 1.0 E 6 9 3 5 1025.1 1024.3 0.0
22/05:30am 13.4 12.5 11.3 87 1.1 E 7 9 4 5 1024.8 1024.0 0.0
22/05:00am 13.4 12.5 11.3 87 1.1 E 7 11 4 6 1024.6 1023.9 0.0
22/04:30am 13.9 12.7 11.6 86 1.3 ENE 9 13 5 7 1024.3 1023.6 0.0
22/04:00am 14.4 12.5 11.9 85 1.4 ENE 13 19 7 10 1023.9 1023.1 0.0
22/03:30am 14.1 12.6 11.8 86 1.3 ENE 11 15 6 8 1023.8 1023.0 0.0
22/03:00am 14.5 11.9 12.0 85 1.4 ENE 17 22 9 12 1023.7 1022.9 0.0
22/02:30am 14.9 11.9 12.4 85 1.4 NE 20 28 11 15 1023.9 1023.1 0.0
22/02:00am 14.7 11.8 12.4 86 1.3 NE 19 26 10 14 1023.9 1023.1 0.0
22/01:30am 14.8 11.5 12.7 87 1.2 ENE 22 26 12 14 1024.0 1023.2 0.0
22/01:00am 15.0 11.7 12.7 86 1.3 ENE 22 28 12 15 1024.2 1023.4 0.0
22/12:30am 15.4 11.7 12.7 84 1.5 ENE 24 32 13 17 1024.1 1023.3 0.0
22/12:00am 15.7 12.8 12.8 83 1.6 ENE 20 28 11 15 1024.3 1023.6 0.0
 
Date/Time
EST
Temp
°C
App
Temp
°C
Dew
Point
°C
Rel
Hum
%
Delta-T
°C
Wind Press
QNH
hPa
Press
MSL
hPa
Rain since
9am
mm
Dir  Spd
km/h
Gust
km/h
Spd
kts
Gust
kts
21/11:30pm 16.1 13.7 12.8 81 1.9 ENE 17 24 9 13 1024.3 1023.6 0.0
21/11:00pm 16.4 13.5 12.9 80 2.0 ENE 20 28 11 15 1024.2 1023.4 0.0
21/10:30pm 16.7 14.0 13.0 79 2.1 ENE 19 28 10 15 1024.1 1023.3 0.0
21/10:00pm 17.1 14.4 12.8 76 2.4 ENE 19 30 10 16 1024.1 1023.3 0.0
21/09:30pm 17.7 14.0 12.6 72 2.9 ENE 24 37 13 20 1023.8 1023.0 0.0
21/09:00pm 18.3 13.6 12.1 67 3.5 ENE 28 39 15 21 1023.6 1022.8 0.0
21/08:30pm 19.0 14.6 11.8 63 4.1 E 26 33 14 18 1023.3 1022.5 0.0
21/08:00pm 19.8 14.2 11.6 59 4.6 E 32 43 17 23 1023.2 1022.4 0.0
21/07:30pm 20.8 17.1 11.4 55 5.3 E 22 28 12 15 1022.9 1022.1 0.0
21/07:00pm 21.5 16.7 11.5 53 5.7 E 28 37 15 20 1022.4 1021.6 0.0
21/06:30pm 22.2 17.6 11.0 49 6.3 E 26 32 14 17 1022.0 1021.2 0.0
21/06:00pm 22.9 18.2 10.7 46 6.9 E 26 32 14 17 1021.6 1020.8 0.0
21/05:30pm 23.8 18.6 10.1 42 7.7 E 28 37 15 20 1021.4 1020.6 0.0
21/05:00pm 24.8 20.9 9.5 38 8.5 E 20 26 11 14 1021.2 1020.4 0.0
21/04:30pm 25.5 20.4 7.6 32 9.7 NE 24 33 13 18 1021.1 1020.3 0.0
21/04:00pm 25.8 21.5 7.9 32 9.7 ENE 20 28 11 15 1020.8 1020.0 0.0
21/03:30pm 25.4 22.5 8.0 33 9.5 NE 13 22 7 12 1021.1 1020.3 0.0
21/03:00pm 26.0 21.3 7.6 31 10.0 NE 22 32 12 17 1021.4 1020.6 0.0
21/02:30pm 26.0 21.4 8.0 32 9.8 NNE 22 39 12 21 1021.6 1020.8 0.0
21/02:00pm 25.3 21.8 8.7 35 9.1 NNE 17 26 9 14 1021.9 1021.1 0.0
21/01:30pm 26.5 22.1 8.9 33 9.8 NNE 22 33 12 18 1022.1 1021.3 0.0
21/01:00pm 24.4 19.8 9.6 39 8.2 ENE 24 39 13 21 1022.6 1021.8 0.0
21/12:30pm 24.2 19.8 9.0 38 8.4 NE 22 37 12 20 1023.3 1022.5 0.0
21/12:00pm 24.6 19.9 9.3 38 8.5 NE 24 39 13 21 1023.8 1023.0 0.0
21/11:30am 23.9 18.4 10.6 43 7.5 ENE 30 37 16 20 1024.1 1023.3 0.0
21/11:00am 23.7 19.7 10.4 43 7.5 NNE 22 43 12 23 1024.8 1024.0 0.0
21/10:30am 23.0 18.9 11.4 48 6.6 NE 24 37 13 20 1025.3 1024.5 0.0
21/10:00am 22.1 18.3 12.4 54 5.6 NE 24 33 13 18 1025.5 1024.7 0.0
21/09:30am 21.1 16.5 12.3 57 5.1 ENE 28 37 15 20 1025.7 1024.9 0.0
21/09:00am 21.3 17.7 13.0 59 4.8 NE 24 35 13 19 1026.1 1025.3 0.0
21/08:50am 21.0 16.6 12.9 60 4.7 NE 28 48 15 26 1026.0 1025.2 0.0
21/08:30am 20.2 16.7 13.4 65 4.0 ENE 24 32 13 17 1026.0 1025.2 0.0
21/08:00am 18.5 14.3 13.4 72 2.9 ENE 28 37 15 20 1025.9 1025.1 0.0
21/07:30am 17.9 14.5 13.6 76 2.5 ENE 24 33 13 18 1025.9 1025.1 0.0
21/07:00am 16.6 14.3 14.1 85 1.4 ENE 19 22 10 12 1025.8 1025.0 0.0
21/06:30am 15.2 13.7 13.2 88 1.1 ENE 13 20 7 11 1025.5 1024.7 0.0
21/06:00am 14.7 13.6 13.1 90 0.9 ENE 11 22 6 12 1025.3 1024.5 0.0
21/05:30am 14.1 13.2 12.7 91 0.8 NE 9 17 5 9 1025.1 1024.3 0.0
21/05:00am 14.2 13.2 12.4 89 1.0 NE 9 13 5 7 1025.0 1024.2 0.0
21/04:30am 14.2 13.8 12.4 89 1.0 ENE 6 11 3 6 1024.8 1024.0 0.0
21/04:00am 14.6 12.9 12.5 87 1.2 NE 13 20 7 11 1024.4 1023.7 0.0
21/03:30am 15.1 13.6 13.0 87 1.2 ENE 13 20 7 11 1024.1 1023.3 0.0
21/03:00am 15.1 12.7 12.8 86 1.3 ENE 17 26 9 14 1024.1 1023.3 0.0
21/02:30am 15.5 12.8 12.8 84 1.5 ENE 19 26 10 14 1023.8 1023.0 0.0
21/02:00am 15.4 12.7 12.9 85 1.4 ENE 19 26 10 14 1024.0 1023.2 0.0
21/01:30am 15.5 13.1 12.8 84 1.5 ENE 17 26 9 14 1024.1 1023.3 0.0
21/01:00am 15.6 13.3 12.9 84 1.5 ENE 17 24 9 13 1024.1 1023.3 0.0
21/12:30am 15.7 13.8 13.0 84 1.5 NE 15 26 8 14 1024.4 1023.7 0.0
21/12:00am 15.7 13.0 13.0 84 1.5 NE 19 30 10 16 1024.5 1023.8 0.0
 
Date/Time
EST
Temp
°C
App
Temp
°C
Dew
Point
°C
Rel
Hum
%
Delta-T
°C
Wind Press
QNH
hPa
Press
MSL
hPa
Rain since
9am
mm
Dir  Spd
km/h
Gust
km/h
Spd
kts
Gust
kts
20/11:30pm 15.9 12.7 13.0 83 1.6 ENE 22 32 12 17 1024.5 1023.8 0.0
20/11:00pm 16.2 11.5 13.1 82 1.8 ENE 30 43 16 23 1024.3 1023.6 0.0
20/10:30pm 16.4 12.4 12.9 80 2.0 ENE 26 41 14 22 1024.2 1023.4 0.0
20/10:04pm 16.6 11.4 12.9 79 2.1 E 32 50 17 27 1023.9 1023.1 0.0
20/10:00pm 16.6 11.8 12.9 79 2.1 E 30 41 16 22 1024.0 1023.2 0.0
20/09:30pm 16.9 11.4 12.4 75 2.5 ENE 33 46 18 25 1024.0 1023.2 0.0
20/09:00pm 17.3 10.6 12.4 73 2.8 E 39 56 21 30 1023.8 1023.0 0.0
20/08:30pm 17.8 11.2 12.7 72 2.9 E 39 48 21 26 1023.7 1022.9 0.0
20/08:00pm 18.4 12.1 12.4 68 3.4 E 37 46 20 25 1023.6 1022.8 0.0
20/07:30pm 19.2 13.2 12.0 63 4.1 E 35 46 19 25 1023.3 1022.5 0.0
20/07:00pm 20.0 14.8 11.5 58 4.8 E 30 37 16 20 1023.2 1022.4 0.0
20/06:30pm 20.8 15.9 11.4 55 5.3 E 28 39 15 21 1022.6 1021.8 0.0
20/06:00pm 21.7 16.2 10.5 49 6.2 E 30 39 16 21 1022.2 1021.4 0.0
20/05:30pm 22.9 17.4 9.3 42 7.5 E 28 37 15 20 1021.6 1020.8 0.0
20/05:00pm 23.9 19.3 8.3 37 8.4 ESE 22 30 12 16 1021.3 1020.5 0.0
20/04:30pm 24.3 19.9 7.4 34 9.1 ENE 20 32 11 17 1021.2 1020.4 0.0
20/04:00pm 25.0 18.9 6.7 31 9.7 E 28 37 15 20 1021.1 1020.3 0.0
20/03:30pm 24.8 19.3 6.1 30 9.8 E 24 33 13 18 1021.1 1020.3 0.0

Other formats

Comma delimited format used in spreadsheet applications
http://www.bom.gov.au/fwo/IDQ60801/IDQ60801.99435.axf

JavaScript Object Notation format (JSON) in row-major order
http://www.bom.gov.au/fwo/IDQ60801/IDQ60801.99435.json

Data quality

Most of these data are generated automatically and are frequently updated. Quality checks on data are not normally performed. It is possible for incorrect values to appear. Refer to information at About Latest Weather Observations and please check the disclaimer before using these data.